createdAt,value
2022-08-03T00:00:26.180Z,74.90
2022-08-03T00:02:53.099Z,69.40
2022-08-03T00:05:20.023Z,56.10
2022-08-03T00:07:46.837Z,74.30
2022-08-03T00:10:16.561Z,52.00
2022-08-03T00:12:43.437Z,36.00
2022-08-03T00:15:11.407Z,18.50
2022-08-03T00:17:52.677Z,35.10
2022-08-03T00:20:20.198Z,36.70
2022-08-03T00:22:47.017Z,25.60
2022-08-03T00:25:14.110Z,20.70
2022-08-03T00:27:40.809Z,21.40
2022-08-03T00:30:08.898Z,6.60
2022-08-03T00:32:35.791Z,13.30
2022-08-03T00:35:08.040Z,28.60
2022-08-03T00:37:41.366Z,34.50
2022-08-03T00:40:11.706Z,34.80
2022-08-03T00:42:56.618Z,37.10
2022-08-03T00:45:26.941Z,71.00
2022-08-03T00:47:54.556Z,50.40
2022-08-03T00:50:23.968Z,46.40
2022-08-03T00:52:52.823Z,42.20
2022-08-03T00:55:20.418Z,54.80
2022-08-03T00:57:48.109Z,49.00
2022-08-03T01:00:19.987Z,59.20
2022-08-03T01:02:47.582Z,64.60
2022-08-03T01:05:14.426Z,75.20
2022-08-03T01:08:05.228Z,66.80
2022-08-03T01:10:50.267Z,90.60
2022-08-03T01:14:01.961Z,99.90
2022-08-03T01:16:37.081Z,99.90
2022-08-03T01:19:18.739Z,99.90
2022-08-03T01:22:24.497Z,99.90
2022-08-03T01:25:06.802Z,99.90
2022-08-03T01:27:45.574Z,99.90
2022-08-03T01:30:12.688Z,99.90
2022-08-03T01:33:01.006Z,99.90
2022-08-03T01:35:38.834Z,99.90
2022-08-03T01:38:28.884Z,99.90
2022-08-03T01:40:57.220Z,99.90
2022-08-03T01:44:26.732Z,99.90
2022-08-03T01:46:16.269Z,99.90
2022-08-03T01:48:44.927Z,99.90
2022-08-03T01:51:13.293Z,99.90
2022-08-03T01:53:43.050Z,99.90
2022-08-03T01:56:10.819Z,99.90
2022-08-03T01:58:38.771Z,99.90
2022-08-03T02:01:06.962Z,99.90
2022-08-03T02:03:38.592Z,99.90
2022-08-03T02:07:01.223Z,99.90
2022-08-03T02:09:16.083Z,99.90
2022-08-03T02:11:43.704Z,99.90
2022-08-03T02:14:11.237Z,99.90
2022-08-03T02:16:38.097Z,99.90
2022-08-03T02:19:07.251Z,99.90
2022-08-03T02:21:56.448Z,99.90
2022-08-03T02:24:24.260Z,99.90
2022-08-03T02:26:54.863Z,99.90
2022-08-03T02:29:39.444Z,99.90
2022-08-03T02:32:10.706Z,99.90
2022-08-03T02:34:40.246Z,99.90
2022-08-03T02:37:08.594Z,99.90
2022-08-03T02:39:36.859Z,99.90
2022-08-03T02:42:06.562Z,99.90
2022-08-03T02:44:34.968Z,99.90
2022-08-03T02:47:06.387Z,99.90
2022-08-03T02:49:50.941Z,99.90
2022-08-03T02:52:21.424Z,99.90
2022-08-03T02:54:51.206Z,99.90
2022-08-03T02:57:19.468Z,99.90
2022-08-03T02:59:47.121Z,99.90
2022-08-03T03:02:16.561Z,1.00
2022-08-03T03:05:50.660Z,99.90
2022-08-03T03:07:37.249Z,99.90
2022-08-03T03:10:19.317Z,99.90
2022-08-03T03:12:48.322Z,99.90
2022-08-03T03:15:15.388Z,99.90
2022-08-03T03:17:44.197Z,99.90
2022-08-03T03:20:12.048Z,99.90
2022-08-03T03:22:40.215Z,99.90
2022-08-03T03:25:12.291Z,99.90
2022-08-03T03:27:39.849Z,99.90
2022-08-03T03:30:08.516Z,99.90
2022-08-03T03:32:36.923Z,99.90
2022-08-03T03:35:05.655Z,99.90
2022-08-03T03:37:32.400Z,99.90
2022-08-03T03:39:59.224Z,99.90
2022-08-03T03:42:26.388Z,1.00
2022-08-03T03:44:53.709Z,99.90
2022-08-03T03:47:32.730Z,99.90
2022-08-03T03:50:00.217Z,1.00
2022-08-03T03:52:28.587Z,99.90
2022-08-03T03:54:58.973Z,99.90
2022-08-03T03:57:28.066Z,99.90
2022-08-03T03:59:54.898Z,99.90
2022-08-03T04:02:21.781Z,1.00
2022-08-03T04:05:07.313Z,1.00
2022-08-03T04:08:09.111Z,1.00
2022-08-03T04:10:58.445Z,1.00
2022-08-03T04:13:29.503Z,1.00
2022-08-03T04:15:58.166Z,1.00
2022-08-03T04:18:29.735Z,1.00
2022-08-03T04:20:59.029Z,1.00
2022-08-03T04:23:28.267Z,1.00
2022-08-03T04:25:56.417Z,1.00
2022-08-03T04:28:31.088Z,99.90
2022-08-03T04:31:00.830Z,99.90
2022-08-03T04:33:31.472Z,99.90
2022-08-03T04:36:03.793Z,99.90
2022-08-03T04:38:36.611Z,99.90
2022-08-03T04:41:04.261Z,99.90
2022-08-03T04:43:33.447Z,99.90
2022-08-03T04:46:01.584Z,99.90
2022-08-03T04:48:28.966Z,99.90
2022-08-03T04:50:55.778Z,99.90
2022-08-03T04:53:22.688Z,99.90
2022-08-03T04:55:50.211Z,99.90
2022-08-03T04:58:17.111Z,99.90
2022-08-03T05:00:45.654Z,99.90
2022-08-03T05:03:20.490Z,99.90
2022-08-03T05:06:01.635Z,99.90
2022-08-03T05:08:46.149Z,99.90
2022-08-03T05:11:16.592Z,99.90
2022-08-03T05:13:44.685Z,99.90
2022-08-03T05:16:12.126Z,99.90
2022-08-03T05:18:38.848Z,99.90
2022-08-03T05:21:05.583Z,99.90
2022-08-03T05:23:32.569Z,99.90
2022-08-03T05:25:59.448Z,99.90
2022-08-03T05:28:26.241Z,99.90
2022-08-03T05:30:53.023Z,99.90
2022-08-03T05:33:19.796Z,99.90
2022-08-03T05:36:00.449Z,99.90
2022-08-03T05:38:34.809Z,99.90
2022-08-03T05:41:21.625Z,99.90
2022-08-03T05:43:51.838Z,99.90
2022-08-03T05:46:18.619Z,99.90
2022-08-03T05:48:45.387Z,99.90
2022-08-03T05:51:12.540Z,99.90
2022-08-03T05:53:40.793Z,99.90
2022-08-03T05:56:14.018Z,99.90
2022-08-03T05:58:44.021Z,99.90
2022-08-03T06:01:10.870Z,99.90
2022-08-03T06:03:37.623Z,99.90
2022-08-03T06:06:04.479Z,99.90
2022-08-03T06:08:31.263Z,99.90
2022-08-03T06:10:57.983Z,99.90
2022-08-03T06:13:24.729Z,99.90
2022-08-03T06:15:52.085Z,99.90
2022-08-03T06:18:19.053Z,99.90
2022-08-03T06:20:47.164Z,99.90
2022-08-03T06:23:17.777Z,99.90
2022-08-03T06:25:45.438Z,99.90
2022-08-03T06:28:35.325Z,99.90
2022-08-03T06:31:01.427Z,99.90
2022-08-03T06:33:48.428Z,92.50
2022-08-03T06:36:15.471Z,99.90
2022-08-03T06:38:42.227Z,93.60
2022-08-03T06:41:09.027Z,85.00
2022-08-03T06:43:38.015Z,50.80
2022-08-03T06:46:06.045Z,46.80
2022-08-03T06:48:32.829Z,33.00
2022-08-03T06:50:59.843Z,22.30
2022-08-03T06:53:26.603Z,36.40
2022-08-03T06:55:55.088Z,24.20
2022-08-03T06:58:22.662Z,10.70
2022-08-03T07:00:49.794Z,1.00
2022-08-03T07:03:17.149Z,1.00
2022-08-03T07:05:46.728Z,1.00
2022-08-03T07:08:14.539Z,1.00
2022-08-03T07:10:41.389Z,1.00
2022-08-03T07:13:08.132Z,1.00
2022-08-03T07:15:55.782Z,1.00
2022-08-03T07:18:29.236Z,1.00
2022-08-03T07:20:57.722Z,1.00
2022-08-03T07:23:25.613Z,1.00
2022-08-03T07:25:52.945Z,1.00
2022-08-03T07:28:20.447Z,1.00
2022-08-03T07:30:47.512Z,1.00
2022-08-03T07:33:15.115Z,1.00
2022-08-03T07:35:42.312Z,1.00
2022-08-03T07:38:09.049Z,1.00
2022-08-03T07:40:35.913Z,1.00
2022-08-03T07:43:03.694Z,1.00
2022-08-03T07:45:31.889Z,1.00
2022-08-03T07:47:58.656Z,1.00
2022-08-03T07:50:25.568Z,1.00
2022-08-03T07:52:53.577Z,1.00
2022-08-03T07:55:22.556Z,1.00
2022-08-03T07:58:03.840Z,1.00
2022-08-03T08:00:31.499Z,1.00
2022-08-03T08:02:58.379Z,1.00
2022-08-03T08:05:25.534Z,1.00
2022-08-03T08:07:52.377Z,1.00
2022-08-03T08:10:20.021Z,1.00
2022-08-03T08:12:46.989Z,1.00
2022-08-03T08:15:13.787Z,1.00
2022-08-03T08:17:47.824Z,1.00
2022-08-03T08:20:27.076Z,1.00
2022-08-03T08:23:01.224Z,1.00
2022-08-03T08:25:29.479Z,1.00
2022-08-03T08:28:29.547Z,1.00
2022-08-03T08:30:43.394Z,1.00
2022-08-03T08:33:22.742Z,1.00
2022-08-03T08:35:51.307Z,1.00
2022-08-03T08:38:18.091Z,1.00
2022-08-03T08:40:45.085Z,1.00
2022-08-03T08:43:11.839Z,1.00
2022-08-03T08:45:40.550Z,1.00
2022-08-03T08:48:08.679Z,1.00
2022-08-03T08:50:38.717Z,1.00
2022-08-03T08:53:09.744Z,1.00
2022-08-03T08:55:58.828Z,1.00
2022-08-03T08:58:26.283Z,1.00
2022-08-03T09:00:53.160Z,1.00
2022-08-03T09:03:28.916Z,1.00
2022-08-03T09:05:59.087Z,1.00
2022-08-03T09:08:26.124Z,1.00
2022-08-03T09:10:52.897Z,1.00
2022-08-03T09:13:19.848Z,1.00
2022-08-03T09:15:51.326Z,1.00
2022-08-03T09:18:32.302Z,1.00
2022-08-03T09:21:36.066Z,1.00
2022-08-03T09:24:07.034Z,1.00
2022-08-03T09:26:37.267Z,1.00
2022-08-03T09:29:14.817Z,1.00
2022-08-03T09:31:45.462Z,1.00
2022-08-03T09:34:16.977Z,1.00
2022-08-03T09:36:46.621Z,1.00
2022-08-03T09:39:18.542Z,1.00
2022-08-03T09:42:06.439Z,1.00
2022-08-03T09:45:05.873Z,1.00
2022-08-03T09:47:45.150Z,1.00
2022-08-03T09:50:12.920Z,1.00
2022-08-03T09:52:49.338Z,1.00
2022-08-03T09:56:33.103Z,1.00
2022-08-03T09:58:09.500Z,1.00
2022-08-03T10:00:59.139Z,1.00
2022-08-03T10:03:28.587Z,1.00
2022-08-03T10:05:59.556Z,1.00
2022-08-03T10:08:26.930Z,1.00
2022-08-03T10:10:58.723Z,1.00
2022-08-03T10:13:25.621Z,1.00
2022-08-03T10:16:22.134Z,1.00
2022-08-03T10:18:39.182Z,1.00
2022-08-03T10:21:10.459Z,1.00
2022-08-03T10:23:38.828Z,1.00
2022-08-03T10:26:07.723Z,1.00
2022-08-03T10:28:44.506Z,1.00
2022-08-03T10:31:13.893Z,1.00
2022-08-03T10:33:51.329Z,1.00
2022-08-03T10:36:22.968Z,1.00
2022-08-03T10:38:53.669Z,1.00
2022-08-03T10:41:22.333Z,1.00
2022-08-03T10:43:55.063Z,1.00
2022-08-03T10:46:22.059Z,1.00
2022-08-03T10:48:53.781Z,1.00
2022-08-03T10:51:21.571Z,1.00
2022-08-03T10:53:55.035Z,1.00
2022-08-03T10:56:56.889Z,1.00
2022-08-03T10:59:46.724Z,1.00
2022-08-03T11:02:14.920Z,1.00
2022-08-03T11:04:42.778Z,1.00
2022-08-03T11:07:19.072Z,1.00
2022-08-03T11:09:50.198Z,1.00
2022-08-03T11:12:32.221Z,1.00
2022-08-03T11:15:03.329Z,1.00
2022-08-03T11:17:30.412Z,1.00
2022-08-03T11:19:58.633Z,1.00
2022-08-03T11:22:46.157Z,1.00
2022-08-03T11:25:54.285Z,1.00
2022-08-03T11:28:29.483Z,1.00
2022-08-03T11:31:39.237Z,1.00
2022-08-03T11:34:08.790Z,1.00
2022-08-03T11:37:13.242Z,1.00
2022-08-03T11:39:43.543Z,1.00
2022-08-03T11:42:26.299Z,1.00
2022-08-03T11:44:53.995Z,1.00
2022-08-03T11:47:21.964Z,1.00
2022-08-03T11:49:51.619Z,1.00
2022-08-03T11:52:19.531Z,1.00
2022-08-03T11:54:56.796Z,1.00
2022-08-03T11:59:00.814Z,1.00
2022-08-03T12:00:26.992Z,1.00
2022-08-03T12:03:09.503Z,1.00
2022-08-03T12:05:40.629Z,1.00
2022-08-03T12:08:10.522Z,1.00
2022-08-03T12:10:38.919Z,1.00
2022-08-03T12:14:45.212Z,1.00
2022-08-03T12:15:59.368Z,1.00
2022-08-03T12:18:26.367Z,1.00
2022-08-03T12:21:03.113Z,1.00
2022-08-03T12:23:29.885Z,1.00
2022-08-03T12:26:08.761Z,1.00
2022-08-03T12:28:38.437Z,1.00
2022-08-03T12:31:12.676Z,1.00
2022-08-03T12:34:02.821Z,1.00
2022-08-03T12:36:31.793Z,1.00
2022-08-03T12:39:04.268Z,1.00
2022-08-03T12:41:36.488Z,1.00
2022-08-03T12:44:08.047Z,1.00
2022-08-03T12:46:45.343Z,1.00
2022-08-03T12:49:18.652Z,1.00
2022-08-03T12:51:45.517Z,1.00
2022-08-03T12:54:25.085Z,1.00
2022-08-03T12:57:05.121Z,1.00
2022-08-03T12:59:35.424Z,1.00
2022-08-03T13:02:17.961Z,1.00
2022-08-03T13:04:47.389Z,1.00
2022-08-03T13:07:15.792Z,1.00
2022-08-03T13:09:44.026Z,1.00
2022-08-03T13:12:20.942Z,1.00
2022-08-03T13:14:49.658Z,1.00
2022-08-03T13:17:19.528Z,1.00
2022-08-03T13:19:47.731Z,1.00
2022-08-03T13:22:18.815Z,1.00
2022-08-03T13:24:47.942Z,1.00
2022-08-03T13:28:01.270Z,1.00
2022-08-03T13:30:02.260Z,1.00
2022-08-03T13:32:29.375Z,1.00
2022-08-03T13:34:56.221Z,1.00
2022-08-03T13:37:23.475Z,1.00
2022-08-03T13:39:58.711Z,1.00
2022-08-03T13:42:29.137Z,1.00
2022-08-03T13:44:56.242Z,1.00
2022-08-03T13:47:23.326Z,1.00
2022-08-03T13:49:59.830Z,1.00
2022-08-03T13:52:35.990Z,1.00
2022-08-03T13:55:05.531Z,1.00
2022-08-03T13:58:03.080Z,1.00
2022-08-03T14:00:27.751Z,1.00
2022-08-03T14:03:03.793Z,1.00
2022-08-03T14:05:32.860Z,1.00
2022-08-03T14:08:05.688Z,1.00
2022-08-03T14:10:35.168Z,1.00
2022-08-03T14:13:02.110Z,1.00
2022-08-03T14:15:28.938Z,1.00
2022-08-03T14:17:58.640Z,1.00
2022-08-03T14:20:37.759Z,1.00
2022-08-03T14:23:14.254Z,1.00
2022-08-03T14:25:43.623Z,1.00
2022-08-03T14:28:18.646Z,1.00
2022-08-03T14:30:45.743Z,1.00
2022-08-03T14:33:12.523Z,1.00
2022-08-03T14:35:39.498Z,1.00
2022-08-03T14:38:06.408Z,1.00
2022-08-03T14:40:33.176Z,1.00
2022-08-03T14:43:00.015Z,1.00
2022-08-03T14:45:26.837Z,1.00
2022-08-03T14:50:28.788Z,1.00
2022-08-03T14:50:45.420Z,1.00
2022-08-03T14:53:14.099Z,1.00
2022-08-03T14:55:49.643Z,1.00
2022-08-03T14:58:19.715Z,1.00
2022-08-03T15:00:49.165Z,1.00
2022-08-03T15:03:16.807Z,1.00
2022-08-03T15:05:44.660Z,1.00
2022-08-03T15:08:11.554Z,1.00
2022-08-03T15:10:40.342Z,1.00
2022-08-03T15:13:15.406Z,1.00
2022-08-03T15:15:42.502Z,1.00
2022-08-03T15:18:09.486Z,1.00
2022-08-03T15:20:46.851Z,1.00
2022-08-03T15:23:15.568Z,1.00
2022-08-03T15:26:29.208Z,1.00
2022-08-03T15:28:31.090Z,1.00
2022-08-03T15:30:58.025Z,1.00
2022-08-03T15:33:24.790Z,1.00
2022-08-03T15:35:52.920Z,1.00
2022-08-03T15:38:19.725Z,1.00
2022-08-03T15:40:46.798Z,1.00
2022-08-03T15:43:13.753Z,1.00
2022-08-03T15:45:41.993Z,1.00
2022-08-03T15:48:09.163Z,1.00
2022-08-03T15:50:36.021Z,1.00
2022-08-03T15:53:03.541Z,1.00
2022-08-03T15:55:31.160Z,1.00
2022-08-03T15:59:04.737Z,1.00
2022-08-03T16:00:45.773Z,1.00
2022-08-03T16:03:12.693Z,1.00
2022-08-03T16:05:39.611Z,1.00
2022-08-03T16:08:10.399Z,1.00
2022-08-03T16:10:40.785Z,1.00
2022-08-03T16:13:08.008Z,1.00
2022-08-03T16:15:38.430Z,1.00
2022-08-03T16:18:08.666Z,1.00
2022-08-03T16:20:35.695Z,1.00
2022-08-03T16:23:10.949Z,1.00
2022-08-03T16:25:39.525Z,1.00
2022-08-03T16:28:13.100Z,1.00
2022-08-03T16:30:42.149Z,1.00
2022-08-03T16:33:09.559Z,1.00
2022-08-03T16:35:36.456Z,1.00
2022-08-03T16:38:09.278Z,1.00
2022-08-03T16:40:37.054Z,1.00
2022-08-03T16:43:18.284Z,1.00
2022-08-03T16:45:46.817Z,1.00
2022-08-03T16:48:16.164Z,1.00
2022-08-03T16:50:44.376Z,1.00
2022-08-03T16:53:16.653Z,1.00
2022-08-03T16:55:53.522Z,1.00
2022-08-03T16:58:34.422Z,1.00
2022-08-03T17:01:21.972Z,1.00
2022-08-03T17:04:01.458Z,1.00
2022-08-03T17:06:35.850Z,1.00
2022-08-03T17:09:09.949Z,1.00
2022-08-03T17:11:47.093Z,1.00
2022-08-03T17:14:15.839Z,1.00
2022-08-03T17:16:52.530Z,1.00
2022-08-03T17:19:23.018Z,1.00
2022-08-03T17:22:10.655Z,1.00
2022-08-03T17:24:42.179Z,1.00
2022-08-03T17:27:23.115Z,1.00
2022-08-03T17:30:13.325Z,1.00
2022-08-03T17:32:56.550Z,1.00
2022-08-03T17:35:34.193Z,1.00
2022-08-03T17:38:06.643Z,1.00
2022-08-03T17:40:34.650Z,1.00
2022-08-03T17:44:13.454Z,1.00
2022-08-03T17:45:55.024Z,1.00
2022-08-03T17:48:25.104Z,1.00
2022-08-03T17:50:59.250Z,1.00
2022-08-03T17:53:31.987Z,1.00
2022-08-03T17:56:44.635Z,1.00
2022-08-03T17:59:50.876Z,1.00
2022-08-03T18:02:47.567Z,1.00
2022-08-03T18:05:17.524Z,1.00
2022-08-03T18:08:01.461Z,1.00
2022-08-03T18:10:34.416Z,1.00
2022-08-03T18:13:10.444Z,1.00
2022-08-03T18:15:49.292Z,1.00
2022-08-03T18:18:29.299Z,1.00
2022-08-03T18:21:04.521Z,1.00
2022-08-03T18:23:36.581Z,1.00
2022-08-03T18:26:07.447Z,1.00
2022-08-03T18:28:40.800Z,1.00
2022-08-03T18:31:11.812Z,1.00
2022-08-03T18:34:17.627Z,1.00
2022-08-03T18:36:30.092Z,1.00
2022-08-03T18:38:59.907Z,1.00
2022-08-03T18:41:33.271Z,1.00
2022-08-03T18:44:08.426Z,1.00
2022-08-03T18:47:07.455Z,1.00
2022-08-03T18:50:19.045Z,1.00
2022-08-03T18:53:15.598Z,1.00
2022-08-03T18:56:03.872Z,1.00
2022-08-03T18:59:02.815Z,1.00
2022-08-03T19:04:46.123Z,1.00
2022-08-03T19:07:22.252Z,1.00
2022-08-03T19:09:59.410Z,1.00
2022-08-03T19:12:42.443Z,1.00
2022-08-03T19:15:13.497Z,1.00
2022-08-03T19:17:53.683Z,1.00
2022-08-03T19:20:22.551Z,1.00
2022-08-03T19:22:53.627Z,1.00
2022-08-03T19:25:34.364Z,1.00
2022-08-03T19:28:06.270Z,1.00
2022-08-03T19:30:46.282Z,1.00
2022-08-03T19:33:20.795Z,1.00
2022-08-03T19:35:55.655Z,1.00
2022-08-03T19:38:28.712Z,1.00
2022-08-03T19:41:02.365Z,1.00
2022-08-03T19:43:49.299Z,1.00
2022-08-03T19:46:31.516Z,1.00
2022-08-03T19:49:10.590Z,1.00
2022-08-03T19:54:53.266Z,1.00
2022-08-03T19:57:24.342Z,1.00
2022-08-03T19:59:52.511Z,1.00
2022-08-03T20:02:26.105Z,1.00
2022-08-03T20:04:55.551Z,1.00
2022-08-03T20:07:23.004Z,1.00
2022-08-03T20:09:54.546Z,1.00
2022-08-03T20:12:28.163Z,1.00
2022-08-03T20:14:57.409Z,1.00
2022-08-03T20:17:54.728Z,1.00
2022-08-03T20:20:12.133Z,1.00
2022-08-03T20:22:43.164Z,1.00
2022-08-03T20:28:13.890Z,1.00
2022-08-03T20:30:44.354Z,1.00
2022-08-03T20:33:18.589Z,1.00
2022-08-03T20:35:49.290Z,1.00
2022-08-03T20:38:19.993Z,1.00
2022-08-03T20:40:54.145Z,1.00
2022-08-03T20:43:20.889Z,1.00
2022-08-03T20:45:59.416Z,1.00
2022-08-03T20:48:37.135Z,1.00
2022-08-03T20:51:15.730Z,1.00
2022-08-03T20:54:00.425Z,1.00
2022-08-03T20:56:34.799Z,1.00
2022-08-03T20:59:04.353Z,1.00
2022-08-03T21:01:36.342Z,1.00
2022-08-03T21:04:09.285Z,1.00
2022-08-03T21:06:41.738Z,1.00
2022-08-03T21:09:18.830Z,1.00
2022-08-03T21:11:51.203Z,1.00
2022-08-03T21:13:08.789Z,1.00
2022-08-03T21:13:09.724Z,1.00
2022-08-03T21:13:13.763Z,1.00
2022-08-03T21:14:34.812Z,1.00
2022-08-03T21:17:14.098Z,1.00
2022-08-03T21:19:52.130Z,1.00
2022-08-03T21:22:22.966Z,1.00
2022-08-03T21:24:54.420Z,1.00
2022-08-03T21:27:24.273Z,1.00
2022-08-03T21:29:52.944Z,1.00
2022-08-03T21:32:32.872Z,1.00
2022-08-03T21:35:00.813Z,1.00
2022-08-03T21:37:28.621Z,1.00
2022-08-03T21:39:56.810Z,1.00
2022-08-03T21:42:24.319Z,1.00
2022-08-03T21:44:54.295Z,1.00
2022-08-03T21:47:22.711Z,1.00
2022-08-03T21:50:08.443Z,1.00
2022-08-03T21:52:41.799Z,1.00
2022-08-03T21:55:09.139Z,1.00
2022-08-03T21:57:53.501Z,1.00
2022-08-03T22:00:23.293Z,1.00
2022-08-03T22:02:56.050Z,1.00
2022-08-03T22:05:42.968Z,1.00
2022-08-03T22:08:13.367Z,1.00
2022-08-03T22:10:40.936Z,1.00
2022-08-03T22:13:07.909Z,1.00
2022-08-03T22:15:34.893Z,1.00
2022-08-03T22:18:04.646Z,1.00
2022-08-03T22:20:31.580Z,1.00
2022-08-03T22:23:02.935Z,1.00
2022-08-03T22:25:33.548Z,1.00
2022-08-03T22:28:06.146Z,1.00
2022-08-03T22:30:33.723Z,1.00
2022-08-03T22:33:02.722Z,1.00
2022-08-03T22:35:47.736Z,1.00
2022-08-03T22:38:15.782Z,1.00
2022-08-03T22:40:43.752Z,1.00
2022-08-03T22:43:10.645Z,1.00
2022-08-03T22:46:06.818Z,1.00
2022-08-03T22:48:27.740Z,1.00
2022-08-03T22:50:56.877Z,1.00
2022-08-03T22:53:23.790Z,1.00
2022-08-03T22:55:52.005Z,1.00
2022-08-03T22:58:20.943Z,1.00
2022-08-03T23:00:57.585Z,1.00
2022-08-03T23:03:58.857Z,1.00
2022-08-03T23:06:21.614Z,1.00
2022-08-03T23:08:50.344Z,1.00
2022-08-03T23:11:18.938Z,1.00
2022-08-03T23:13:48.514Z,1.00
2022-08-03T23:16:16.701Z,1.00
2022-08-03T23:18:57.812Z,1.00
2022-08-03T23:21:59.987Z,1.00
2022-08-03T23:24:25.307Z,1.00
2022-08-03T23:26:57.138Z,1.00
2022-08-03T23:29:24.550Z,1.00
2022-08-03T23:31:54.918Z,1.00
2022-08-03T23:34:42.074Z,1.00
2022-08-03T23:37:09.611Z,1.00
2022-08-03T23:39:38.628Z,1.00
2022-08-03T23:42:06.522Z,1.00
2022-08-03T23:44:36.817Z,1.00
2022-08-03T23:47:03.955Z,1.00
2022-08-03T23:49:30.860Z,1.00
2022-08-03T23:52:29.727Z,1.00
2022-08-03T23:55:26.880Z,1.00
2022-08-03T23:58:26.062Z,1.00
